Time;durP1;ratioP1;P1;durP2;ratioP2;P2;SDS_P1;SDS_P2;PMS_P1;PMS_P2;Temp;Humidity;BMP_temperature;BMP_pressure;BME280_temperature;BME280_humidity;BME280_pressure;Samples;Min_cycle;Max_cycle;Signal;HPM_P1;HPM_P2
2022/12/30 00:01:55;;;;;;;19.17;2.58;;;;;;;;;;5015457;28;20029;-96
2022/12/30 00:04:20;;;;;;;18.33;2.40;;;;;;;;;;5014872;28;20172;-96
2022/12/30 00:06:47;;;;;;;14.10;2.30;;;;;;;;;;5015029;28;20018;-95
2022/12/30 00:09:12;;;;;;;29.38;2.50;;;;;;;;;;5014497;28;20050;-96
2022/12/30 00:11:38;;;;;;;33.40;3.45;;;;;;;;;;5014898;28;20031;-96
2022/12/30 00:33:43;;;;;;;36.25;4.85;;;;;;;;;;5000171;28;20021;-96
2022/12/30 00:36:09;;;;;;;39.05;3.20;;;;;;;;;;5013517;28;20026;-96
2022/12/30 00:38:34;;;;;;;28.48;3.17;;;;;;;;;;5013639;28;20022;-96
2022/12/30 00:43:43;;;;;;;30.17;2.40;;;;;;;;;;4999518;28;20045;-96
2022/12/30 00:46:10;;;;;;;19.48;1.83;;;;;;;;;;5013519;28;20461;-96
2022/12/30 00:56:48;;;;;;;23.67;2.95;;;;;;;;;;4998850;28;20455;-96
2022/12/30 00:59:13;;;;;;;27.23;2.88;;;;;;;;;;5012876;28;20027;-95
2022/12/30 01:01:38;;;;;;;26.23;2.60;;;;;;;;;;5012158;28;20061;-96
2022/12/30 01:04:04;;;;;;;30.52;2.78;;;;;;;;;;5013246;28;20044;-96
2022/12/30 01:06:29;;;;;;;29.83;3.92;;;;;;;;;;5012864;28;20486;-96
2022/12/30 01:08:54;;;;;;;35.78;2.88;;;;;;;;;;5014405;28;20531;-96
2022/12/30 01:11:20;;;;;;;25.00;3.80;;;;;;;;;;5012594;28;20061;-95
2022/12/30 01:13:45;;;;;;;16.50;2.53;;;;;;;;;;5012025;28;20396;-95
2022/12/30 01:16:12;;;;;;;34.75;2.95;;;;;;;;;;5011936;28;20026;-95
2022/12/30 01:18:37;;;;;;;24.30;2.50;;;;;;;;;;5012121;28;20115;-96
2022/12/30 01:21:03;;;;;;;47.70;3.20;;;;;;;;;;5012166;28;20488;-96
2022/12/30 01:23:28;;;;;;;32.30;2.90;;;;;;;;;;5012778;28;20014;-96
2022/12/30 01:25:53;;;;;;;26.55;3.40;;;;;;;;;;5011933;28;20396;-96
2022/12/30 01:28:19;;;;;;;23.77;2.83;;;;;;;;;;5012159;28;20073;-95
2022/12/30 01:30:44;;;;;;;28.98;2.58;;;;;;;;;;5012034;28;20062;-96
2022/12/30 01:33:09;;;;;;;30.63;3.40;;;;;;;;;;5012449;28;20388;-96
2022/12/30 01:35:35;;;;;;;33.22;3.58;;;;;;;;;;5012986;28;20467;-96
2022/12/30 01:38:00;;;;;;;28.17;4.53;;;;;;;;;;5012256;28;20027;-96
2022/12/30 01:40:26;;;;;;;39.55;4.20;;;;;;;;;;5011565;28;20046;-95
2022/12/30 01:42:51;;;;;;;41.47;4.07;;;;;;;;;;5010137;28;20026;-96
2022/12/30 01:45:24;;;;;;;41.80;4.20;;;;;;;;;;5010775;28;20026;-95
2022/12/30 01:47:56;;;;;;;32.67;5.20;;;;;;;;;;5011580;28;20121;-96
2022/12/30 01:50:28;;;;;;;26.45;4.05;;;;;;;;;;5012266;28;20019;-96
2022/12/30 01:52:56;;;;;;;25.15;3.30;;;;;;;;;;5012757;28;20489;-96
2022/12/30 01:55:24;;;;;;;37.47;3.60;;;;;;;;;;5011211;28;20068;-95
2022/12/30 01:57:50;;;;;;;34.60;3.72;;;;;;;;;;5012137;28;20303;-96
2022/12/30 02:00:16;;;;;;;36.47;3.78;;;;;;;;;;5011811;28;20022;-96
2022/12/30 02:02:41;;;;;;;34.90;4.72;;;;;;;;;;5012244;28;20362;-96
2022/12/30 02:05:07;;;;;;;36.63;5.68;;;;;;;;;;5012413;28;20019;-96
2022/12/30 02:07:35;;;;;;;43.25;5.47;;;;;;;;;;5011881;28;20034;-96
2022/12/30 02:10:00;;;;;;;26.42;2.90;;;;;;;;;;5012110;28;20015;-96
2022/12/30 02:12:26;;;;;;;31.13;4.18;;;;;;;;;;5012041;28;20037;-96
2022/12/30 02:14:53;;;;;;;34.17;5.55;;;;;;;;;;5012501;28;20023;-96
2022/12/30 02:17:28;;;;;;;32.10;3.55;;;;;;;;;;5011868;28;20112;-96
2022/12/30 02:19:56;;;;;;;40.13;4.25;;;;;;;;;;5011931;28;20018;-95
2022/12/30 02:22:30;;;;;;;25.90;3.30;;;;;;;;;;5011689;28;20027;-96
2022/12/30 02:25:28;;;;;;;30.40;2.97;;;;;;;;;;5011927;28;20022;-96
2022/12/30 02:28:08;;;;;;;21.13;3.40;;;;;;;;;;5012605;28;20039;-96
2022/12/30 02:30:52;;;;;;;28.85;5.00;;;;;;;;;;5012100;28;20030;-96
2022/12/30 02:33:17;;;;;;;24.48;3.22;;;;;;;;;;5012806;28;20018;-96
2022/12/30 02:35:48;;;;;;;25.77;3.00;;;;;;;;;;5012206;28;20029;-96
2022/12/30 02:38:23;;;;;;;24.27;3.22;;;;;;;;;;5012477;28;20020;-96
2022/12/30 02:46:24;;;;;;;15.10;2.05;;;;;;;;;;4997134;28;20060;-96
2022/12/30 02:48:52;;;;;;;34.55;3.28;;;;;;;;;;5012433;28;20019;-96
2022/12/30 02:54:02;;;;;;;22.92;3.28;;;;;;;;;;4996231;28;20041;-96
2022/12/30 02:56:28;;;;;;;27.55;3.90;;;;;;;;;;5011992;28;20018;-96
2022/12/30 03:03:56;;;;;;;24.50;3.15;;;;;;;;;;5012572;28;20369;-96
2022/12/30 03:04:37;;;;;;;22.15;2.67;;;;;;;;;;4996221;28;20034;-96
2022/12/30 03:07:07;;;;;;;21.73;4.20;;;;;;;;;;5010935;28;20448;-96
2022/12/30 03:09:36;;;;;;;27.77;3.15;;;;;;;;;;5011863;28;20022;-96
2022/12/30 03:12:09;;;;;;;28.27;3.78;;;;;;;;;;5011444;28;20037;-96
2022/12/30 03:14:47;;;;;;;27.52;3.53;;;;;;;;;;5012881;28;20109;-96
2022/12/30 03:17:21;;;;;;;30.25;5.10;;;;;;;;;;5011817;28;20057;-96
2022/12/30 03:19:49;;;;;;;30.50;4.53;;;;;;;;;;5011901;28;20050;-96
2022/12/30 03:27:48;;;;;;;21.73;3.03;;;;;;;;;;4999044;28;20029;-96
2022/12/30 03:30:15;;;;;;;17.65;3.30;;;;;;;;;;5014826;28;20540;-96
2022/12/30 03:32:40;;;;;;;11.80;2.20;;;;;;;;;;5014416;28;20108;-95
2022/12/30 03:35:06;;;;;;;17.30;2.85;;;;;;;;;;5014641;28;20074;-96
2022/12/30 03:37:33;;;;;;;17.23;3.50;;;;;;;;;;5014441;28;20030;-96
2022/12/30 03:40:17;;;;;;;24.75;3.08;;;;;;;;;;5015675;28;20432;-96
2022/12/30 03:42:44;;;;;;;21.20;4.78;;;;;;;;;;5016755;28;20018;-96
2022/12/30 03:45:13;;;;;;;14.73;1.98;;;;;;;;;;5015992;28;20025;-96
2022/12/30 03:47:38;;;;;;;17.40;2.80;;;;;;;;;;5016870;28;20030;-96
2022/12/30 03:50:04;;;;;;;22.70;2.38;;;;;;;;;;5017205;28;20022;-96
2022/12/30 03:52:30;;;;;;;27.65;4.75;;;;;;;;;;5015174;28;20038;-96
2022/12/30 03:54:55;;;;;;;18.45;2.88;;;;;;;;;;5017101;28;20077;-96
2022/12/30 03:57:20;;;;;;;28.15;3.42;;;;;;;;;;5015844;28;20074;-96
2022/12/30 03:59:46;;;;;;;18.15;2.30;;;;;;;;;;5015366;28;20026;-96
2022/12/30 04:02:11;;;;;;;26.30;3.53;;;;;;;;;;5014788;28;20031;-96
2022/12/30 04:04:37;;;;;;;21.02;3.67;;;;;;;;;;5014574;28;20354;-96
2022/12/30 04:07:02;;;;;;;23.25;2.47;;;;;;;;;;5014097;28;20018;-96
2022/12/30 04:09:28;;;;;;;18.65;2.40;;;;;;;;;;5016517;28;20484;-96
2022/12/30 04:11:53;;;;;;;19.25;2.47;;;;;;;;;;5017704;28;20114;-96
2022/12/30 04:14:19;;;;;;;21.10;3.17;;;;;;;;;;5015978;28;20350;-95
2022/12/30 04:16:44;;;;;;;23.30;2.88;;;;;;;;;;5015194;28;20053;-95
2022/12/30 04:19:10;;;;;;;15.75;2.40;;;;;;;;;;5014452;28;20431;-95
2022/12/30 04:21:35;;;;;;;18.10;2.35;;;;;;;;;;5015563;28;20022;-96
2022/12/30 04:24:03;;;;;;;22.13;2.20;;;;;;;;;;5014333;28;20033;-96
2022/12/30 04:26:29;;;;;;;28.98;5.50;;;;;;;;;;5015087;28;20084;-96
2022/12/30 04:28:54;;;;;;;23.20;3.58;;;;;;;;;;5015511;28;20501;-95
2022/12/30 04:31:20;;;;;;;18.80;3.35;;;;;;;;;;5015004;28;20031;-96
2022/12/30 04:33:49;;;;;;;21.80;2.72;;;;;;;;;;5015461;28;20026;-96
2022/12/30 04:36:14;;;;;;;21.88;2.60;;;;;;;;;;5015379;28;20019;-96
2022/12/30 04:38:39;;;;;;;25.35;3.78;;;;;;;;;;5015283;28;20028;-96
2022/12/30 04:41:05;;;;;;;24.25;3.92;;;;;;;;;;5015443;28;20022;-96
2022/12/30 04:43:30;;;;;;;24.23;2.92;;;;;;;;;;5013216;28;20026;-95
2022/12/30 04:45:55;;;;;;;16.73;3.03;;;;;;;;;;5013220;28;20019;-96
2022/12/30 04:48:21;;;;;;;25.60;4.13;;;;;;;;;;5014124;28;20026;-96
2022/12/30 04:50:47;;;;;;;19.48;2.42;;;;;;;;;;5015050;28;20477;-96
2022/12/30 04:53:13;;;;;;;21.90;2.53;;;;;;;;;;5014023;28;20022;-96
2022/12/30 04:55:38;;;;;;;24.55;3.13;;;;;;;;;;5014134;28;20033;-96
2022/12/30 04:58:04;;;;;;;14.68;2.83;;;;;;;;;;5015092;28;20583;-96
2022/12/30 05:00:29;;;;;;;23.02;2.60;;;;;;;;;;5019765;28;20022;-94
2022/12/30 05:02:55;;;;;;;19.33;2.75;;;;;;;;;;5021752;28;20018;-95
2022/12/30 05:05:20;;;;;;;21.77;4.50;;;;;;;;;;5020050;28;20049;-94
2022/12/30 05:07:46;;;;;;;21.20;2.90;;;;;;;;;;5020564;28;20014;-94
2022/12/30 05:10:24;;;;;;;21.17;3.40;;;;;;;;;;5023795;28;20041;-95
2022/12/30 05:12:49;;;;;;;26.38;3.03;;;;;;;;;;5027687;28;20027;-95
2022/12/30 05:15:14;;;;;;;25.65;3.47;;;;;;;;;;4991904;28;20034;-95
2022/12/30 05:17:40;;;;;;;18.15;2.92;;;;;;;;;;4987105;28;20457;-94
2022/12/30 05:20:05;;;;;;;24.35;3.67;;;;;;;;;;4987925;28;19999;-93
2022/12/30 05:22:30;;;;;;;17.45;2.35;;;;;;;;;;4990223;28;20038;-94
2022/12/30 05:27:40;;;;;;;19.58;3.35;;;;;;;;;;4989180;28;20018;-94
2022/12/30 05:30:05;;;;;;;20.80;3.08;;;;;;;;;;4989189;28;20026;-94
2022/12/30 05:32:31;;;;;;;15.27;2.47;;;;;;;;;;4991484;28;20035;-93
2022/12/30 05:34:56;;;;;;;16.20;2.40;;;;;;;;;;4988809;28;20030;-93
2022/12/30 05:37:22;;;;;;;20.02;2.90;;;;;;;;;;4991612;28;20018;-93
2022/12/30 05:39:47;;;;;;;29.15;3.47;;;;;;;;;;4990574;28;20087;-96
2022/12/30 05:42:12;;;;;;;28.50;3.67;;;;;;;;;;4989909;28;20034;-93
2022/12/30 05:44:38;;;;;;;27.00;2.45;;;;;;;;;;4991079;28;20026;-94
2022/12/30 05:47:03;;;;;;;22.35;2.85;;;;;;;;;;4989083;28;20027;-94
2022/12/30 05:49:28;;;;;;;20.10;3.78;;;;;;;;;;4990081;28;20022;-94
2022/12/30 05:51:54;;;;;;;21.58;3.28;;;;;;;;;;4991634;28;20037;-94
2022/12/30 05:54:19;;;;;;;24.92;3.60;;;;;;;;;;4988904;28;20031;-94
2022/12/30 05:56:44;;;;;;;21.42;2.90;;;;;;;;;;4984237;28;20117;-96
2022/12/30 05:59:10;;;;;;;25.00;3.13;;;;;;;;;;4982238;28;20025;-95
2022/12/30 06:01:38;;;;;;;24.83;3.35;;;;;;;;;;4982580;28;20027;-96
2022/12/30 06:37:51;;;;;;;29.48;4.07;;;;;;;;;;5956536;23;20241;-96
2022/12/30 06:58:14;;;;;;;14.88;1.52;;;;;;;;;;5379903;23;20782;-95
2022/12/30 07:03:20;;;;;;;21.63;3.42;;;;;;;;;;5384965;23;20424;-95
2022/12/30 07:05:46;;;;;;;10.15;1.80;;;;;;;;;;5017572;28;20019;-95
2022/12/30 07:08:11;;;;;;;13.93;1.45;;;;;;;;;;5018694;28;20022;-95
2022/12/30 07:10:37;;;;;;;20.15;2.38;;;;;;;;;;5019115;28;20026;-95
2022/12/30 07:13:02;;;;;;;19.63;1.98;;;;;;;;;;5018909;28;20034;-96
2022/12/30 07:15:27;;;;;;;19.40;1.60;;;;;;;;;;5019115;28;20023;-95
2022/12/30 07:17:53;;;;;;;16.65;2.00;;;;;;;;;;5013171;28;20026;-95
2022/12/30 07:20:18;;;;;;;17.70;2.17;;;;;;;;;;5014059;28;20492;-94
2022/12/30 07:22:44;;;;;;;17.48;1.90;;;;;;;;;;5014991;28;20388;-95
2022/12/30 07:25:09;;;;;;;12.10;1.30;;;;;;;;;;5016380;28;20018;-94
2022/12/30 07:27:35;;;;;;;25.13;1.98;;;;;;;;;;5016096;28;20033;-94
2022/12/30 07:30:09;;;;;;;17.58;2.38;;;;;;;;;;5018696;28;20018;-96
2022/12/30 07:32:34;;;;;;;19.40;2.63;;;;;;;;;;5019228;28;20034;-96
2022/12/30 07:35:00;;;;;;;15.52;1.80;;;;;;;;;;5017519;28;20164;-93
2022/12/30 07:37:25;;;;;;;12.82;2.60;;;;;;;;;;5014328;28;20017;-95
2022/12/30 07:39:51;;;;;;;19.77;1.92;;;;;;;;;;5013379;28;20076;-94
2022/12/30 07:42:16;;;;;;;26.23;2.03;;;;;;;;;;5014089;28;20384;-94
2022/12/30 07:44:41;;;;;;;15.02;1.83;;;;;;;;;;5014236;28;20026;-94
2022/12/30 07:47:07;;;;;;;20.92;2.38;;;;;;;;;;5014508;28;20492;-93
2022/12/30 07:49:32;;;;;;;20.73;1.92;;;;;;;;;;5013699;28;20041;-95
2022/12/30 07:51:58;;;;;;;19.60;2.33;;;;;;;;;;5014255;28;20034;-94
2022/12/30 07:54:23;;;;;;;23.23;3.28;;;;;;;;;;5019110;28;20472;-95
2022/12/30 07:56:48;;;;;;;19.45;3.53;;;;;;;;;;5014681;28;20584;-94
2022/12/30 07:59:14;;;;;;;12.82;1.70;;;;;;;;;;5013343;28;20073;-95
2022/12/30 08:01:39;;;;;;;18.13;1.90;;;;;;;;;;5012875;28;20030;-96
2022/12/30 08:04:06;;;;;;;18.65;1.60;;;;;;;;;;5014219;28;20220;-94
2022/12/30 08:06:31;;;;;;;14.45;1.83;;;;;;;;;;5014285;28;20459;-94
2022/12/30 08:08:56;;;;;;;8.60;1.55;;;;;;;;;;5014841;28;20018;-95
2022/12/30 08:11:22;;;;;;;11.15;1.35;;;;;;;;;;5013429;28;20089;-96
2022/12/30 08:13:47;;;;;;;13.45;1.83;;;;;;;;;;5013179;28;20034;-94
2022/12/30 08:16:14;;;;;;;11.30;0.98;;;;;;;;;;5012947;28;20037;-94
2022/12/30 08:18:39;;;;;;;11.32;1.30;;;;;;;;;;5013588;28;20100;-93
2022/12/30 08:21:06;;;;;;;13.55;1.40;;;;;;;;;;5012926;28;20006;-96
2022/12/30 08:23:32;;;;;;;6.70;1.08;;;;;;;;;;5012773;28;20022;-96
2022/12/30 08:26:02;;;;;;;14.93;1.13;;;;;;;;;;5012325;28;20023;-96
2022/12/30 08:28:28;;;;;;;12.70;1.20;;;;;;;;;;5012065;28;20105;-95
2022/12/30 08:30:56;;;;;;;8.70;1.10;;;;;;;;;;5012275;28;20536;-96
2022/12/30 08:33:21;;;;;;;8.68;1.42;;;;;;;;;;5012504;28;20136;-95
2022/12/30 08:35:46;;;;;;;8.00;0.98;;;;;;;;;;5013196;28;20476;-94
2022/12/30 08:38:11;;;;;;;9.52;1.63;;;;;;;;;;5012874;28;20532;-94
2022/12/30 08:40:37;;;;;;;3.28;0.85;;;;;;;;;;5012552;28;20026;-94
2022/12/30 08:43:03;;;;;;;6.15;0.95;;;;;;;;;;5011896;28;20019;-95
2022/12/30 08:45:28;;;;;;;5.05;0.70;;;;;;;;;;5011475;28;20033;-96
2022/12/30 08:47:53;;;;;;;4.40;0.65;;;;;;;;;;5012699;28;20019;-95
2022/12/30 08:50:19;;;;;;;4.70;0.50;;;;;;;;;;5012599;28;20037;-95
2022/12/30 08:52:44;;;;;;;4.15;0.50;;;;;;;;;;5011885;28;20073;-96
2022/12/30 08:55:09;;;;;;;1.95;0.55;;;;;;;;;;5011681;28;20018;-96
2022/12/30 08:57:39;;;;;;;3.15;0.40;;;;;;;;;;5013910;28;20134;-95
2022/12/30 09:00:04;;;;;;;5.47;0.75;;;;;;;;;;5011102;28;20018;-96
2022/12/30 09:02:30;;;;;;;0.52;0.30;;;;;;;;;;5011034;28;20404;-94
2022/12/30 09:04:55;;;;;;;6.53;0.40;;;;;;;;;;5011448;28;20033;-95
2022/12/30 09:07:20;;;;;;;3.58;0.65;;;;;;;;;;5010656;28;20034;-95
2022/12/30 09:09:46;;;;;;;4.28;0.60;;;;;;;;;;5011045;28;20076;-95
2022/12/30 09:12:11;;;;;;;8.18;1.45;;;;;;;;;;5011582;28;20034;-95
2022/12/30 09:14:36;;;;;;;2.97;0.40;;;;;;;;;;5010754;28;20045;-95
2022/12/30 09:17:02;;;;;;;2.80;0.32;;;;;;;;;;5010299;28;20027;-96
2022/12/30 09:19:28;;;;;;;4.15;0.40;;;;;;;;;;5010176;28;20018;-95
2022/12/30 09:21:53;;;;;;;1.98;0.35;;;;;;;;;;5010017;28;20022;-95
2022/12/30 09:24:19;;;;;;;1.40;0.28;;;;;;;;;;5010160;28;20030;-95
2022/12/30 09:26:44;;;;;;;2.65;0.30;;;;;;;;;;5010798;28;20129;-95
2022/12/30 09:29:09;;;;;;;0.30;0.20;;;;;;;;;;5014622;28;20023;-96
2022/12/30 09:31:35;;;;;;;3.40;0.40;;;;;;;;;;5012145;28;20030;-94
2022/12/30 09:34:05;;;;;;;1.23;0.20;;;;;;;;;;5019130;28;20030;-96
2022/12/30 09:36:30;;;;;;;2.92;0.20;;;;;;;;;;5015035;28;20026;-96
2022/12/30 09:38:56;;;;;;;0.20;0.10;;;;;;;;;;5011045;28;20133;-94
2022/12/30 09:44:27;;;;;;;2.22;0.40;;;;;;;;;;4999865;28;20017;-95
2022/12/30 09:46:58;;;;;;;3.30;0.20;;;;;;;;;;5011615;28;20056;-94
2022/12/30 09:49:26;;;;;;;2.00;1.27;;;;;;;;;;5010805;28;20057;-95
2022/12/30 09:51:54;;;;;;;0.90;0.28;;;;;;;;;;5010485;28;20038;-96
2022/12/30 09:54:22;;;;;;;2.88;0.30;;;;;;;;;;5010768;28;20065;-96
2022/12/30 09:56:49;;;;;;;4.75;0.43;;;;;;;;;;5010648;28;20026;-96
2022/12/30 09:59:36;;;;;;;4.15;0.45;;;;;;;;;;5012826;28;20018;-95
2022/12/30 10:02:14;;;;;;;4.93;0.70;;;;;;;;;;5010638;28;20045;-96
2022/12/30 10:04:45;;;;;;;3.13;0.60;;;;;;;;;;5010999;28;20014;-95
2022/12/30 10:07:29;;;;;;;9.97;0.60;;;;;;;;;;5011353;28;20018;-96
2022/12/30 10:09:54;;;;;;;9.65;1.38;;;;;;;;;;5012193;28;20019;-96
2022/12/30 10:12:36;;;;;;;6.57;0.80;;;;;;;;;;5011551;28;20124;-96
2022/12/30 10:15:06;;;;;;;10.63;1.10;;;;;;;;;;5012109;28;20362;-96
2022/12/30 10:17:56;;;;;;;12.88;1.00;;;;;;;;;;5012034;28;20093;-96
2022/12/30 10:20:41;;;;;;;17.25;2.08;;;;;;;;;;5010931;28;20025;-96
2022/12/30 10:23:16;;;;;;;11.27;2.10;;;;;;;;;;5010994;28;20026;-96
2022/12/30 10:25:41;;;;;;;14.23;1.38;;;;;;;;;;5011355;28;20018;-96
2022/12/30 10:28:08;;;;;;;15.70;2.05;;;;;;;;;;5012049;28;20030;-96
2022/12/30 10:30:36;;;;;;;14.95;1.65;;;;;;;;;;5011376;28;20030;-96
2022/12/30 10:33:21;;;;;;;18.65;1.90;;;;;;;;;;5012028;28;20053;-96
2022/12/30 10:39:04;;;;;;;10.15;1.50;;;;;;;;;;4999590;28;20069;-96
2022/12/30 10:41:58;;;;;;;5.93;1.55;;;;;;;;;;5002769;28;20037;-96
2022/12/30 10:44:58;;;;;;;5.88;0.80;;;;;;;;;;5013945;28;20022;-96
2022/12/30 10:47:36;;;;;;;;;;;;;;;;;;;;;
2022/12/30 10:53:16;;;;;;;5.30;0.82;;;;;;;;;;4999508;28;20046;-96
2022/12/30 11:17:25;;;;;;;7.18;0.40;;;;;;;;;;5063280;23;20082;-96
2022/12/30 12:53:45;;;;;;;10.77;1.10;;;;;;;;;;4996897;28;20520;-96
2022/12/30 12:56:29;;;;;;;7.88;1.10;;;;;;;;;;4997841;28;20026;-96
2022/12/30 12:59:14;;;;;;;5.75;1.00;;;;;;;;;;4997201;28;20019;-95
2022/12/30 13:01:49;;;;;;;12.18;1.33;;;;;;;;;;4995321;28;20034;-96
2022/12/30 13:04:14;;;;;;;9.82;1.30;;;;;;;;;;4996664;28;20019;-96
2022/12/30 13:06:47;;;;;;;9.88;1.45;;;;;;;;;;4997338;28;20022;-95
2022/12/30 13:09:34;;;;;;;8.20;0.90;;;;;;;;;;4996927;28;20029;-96
2022/12/30 13:12:05;;;;;;;7.60;1.20;;;;;;;;;;4996131;28;20551;-94
2022/12/30 13:14:30;;;;;;;6.82;1.10;;;;;;;;;;4996348;28;20497;-96
2022/12/30 13:16:58;;;;;;;6.72;1.20;;;;;;;;;;4996700;28;20030;-96
2022/12/30 13:19:26;;;;;;;5.95;1.27;;;;;;;;;;4996384;28;20082;-96
2022/12/30 13:21:55;;;;;;;7.63;1.30;;;;;;;;;;4995873;28;20022;-95
2022/12/30 13:24:25;;;;;;;6.50;1.17;;;;;;;;;;4995356;28;20015;-96
2022/12/30 13:26:50;;;;;;;6.82;0.80;;;;;;;;;;4994880;28;20393;-96
2022/12/30 13:29:16;;;;;;;7.93;0.70;;;;;;;;;;4995202;28;20018;-95
2022/12/30 13:31:52;;;;;;;5.55;0.60;;;;;;;;;;4995184;28;20546;-95
2022/12/30 13:34:33;;;;;;;6.75;1.20;;;;;;;;;;4995204;28;20389;-96
2022/12/30 13:37:16;;;;;;;5.20;1.10;;;;;;;;;;4994555;28;20105;-96
2022/12/30 13:39:41;;;;;;;5.70;0.65;;;;;;;;;;4994595;28;20033;-95
2022/12/30 13:42:25;;;;;;;7.25;0.80;;;;;;;;;;4994347;28;20018;-95
2022/12/30 13:44:51;;;;;;;7.20;1.00;;;;;;;;;;4994012;28;20015;-96
2022/12/30 13:47:36;;;;;;;7.03;0.70;;;;;;;;;;4993386;28;20018;-95
2022/12/30 13:50:12;;;;;;;7.32;1.02;;;;;;;;;;4993383;28;20069;-95
2022/12/30 13:52:43;;;;;;;4.53;0.90;;;;;;;;;;4993490;28;20036;-95
2022/12/30 13:55:21;;;;;;;5.63;0.98;;;;;;;;;;4993492;28;20078;-96
2022/12/30 13:57:50;;;;;;;5.25;0.82;;;;;;;;;;4993589;28;20026;-96
2022/12/30 14:00:18;;;;;;;6.53;0.90;;;;;;;;;;4993322;28;20451;-94
2022/12/30 14:03:02;;;;;;;7.68;1.05;;;;;;;;;;4993636;28;20018;-96
2022/12/30 14:05:37;;;;;;;4.40;0.55;;;;;;;;;;4993300;28;20105;-96
2022/12/30 14:08:14;;;;;;;6.63;1.00;;;;;;;;;;4993028;28;20388;-95
2022/12/30 14:10:42;;;;;;;4.45;0.80;;;;;;;;;;4993523;28;20018;-96
2022/12/30 14:13:14;;;;;;;4.13;0.47;;;;;;;;;;4993797;28;20030;-95
2022/12/30 14:15:42;;;;;;;5.75;0.50;;;;;;;;;;4994768;28;20381;-96
2022/12/30 14:18:07;;;;;;;4.22;0.50;;;;;;;;;;4995405;28;20019;-96
2022/12/30 14:20:33;;;;;;;4.43;1.00;;;;;;;;;;4996125;28;20026;-95
2022/12/30 14:23:00;;;;;;;1.60;0.28;;;;;;;;;;4995268;28;20468;-96
2022/12/30 16:06:04;;;;;;;6.47;0.70;;;;;;;;;;5016199;28;20042;-96
2022/12/30 16:08:34;;;;;;;10.77;1.38;;;;;;;;;;5017370;28;20029;-96
2022/12/30 16:11:12;;;;;;;6.10;1.23;;;;;;;;;;5016773;28;20456;-96
2022/12/30 16:13:42;;;;;;;7.40;1.02;;;;;;;;;;5017505;28;20040;-95
2022/12/30 16:16:13;;;;;;;5.72;0.95;;;;;;;;;;5017238;28;20026;-96
2022/12/30 16:18:39;;;;;;;7.72;0.90;;;;;;;;;;5017402;28;20022;-96
2022/12/30 16:21:05;;;;;;;7.13;1.17;;;;;;;;;;5017218;28;20084;-96
2022/12/30 16:23:36;;;;;;;8.82;1.17;;;;;;;;;;5017500;28;20014;-96
2022/12/30 16:26:04;;;;;;;15.68;1.42;;;;;;;;;;5016762;28;20022;-96
2022/12/30 16:28:32;;;;;;;9.80;1.40;;;;;;;;;;5017076;28;20018;-96
2022/12/30 16:30:58;;;;;;;11.05;1.60;;;;;;;;;;5017336;28;20032;-95
2022/12/30 16:33:23;;;;;;;10.93;1.63;;;;;;;;;;5017025;28;20057;-94
2022/12/30 16:35:50;;;;;;;11.88;1.98;;;;;;;;;;5016745;28;20113;-96
2022/12/30 16:38:15;;;;;;;10.88;1.20;;;;;;;;;;5015933;28;20021;-95
2022/12/30 16:40:41;;;;;;;13.20;1.67;;;;;;;;;;5015746;28;20075;-96
2022/12/30 16:43:11;;;;;;;8.18;1.15;;;;;;;;;;5016069;28;20045;-95
2022/12/30 16:45:37;;;;;;;10.40;2.03;;;;;;;;;;5015991;28;20104;-95
2022/12/30 16:48:03;;;;;;;10.18;2.00;;;;;;;;;;5016674;28;20026;-95
2022/12/30 16:50:28;;;;;;;10.27;1.77;;;;;;;;;;5016559;28;20025;-94
2022/12/30 16:52:55;;;;;;;10.18;1.98;;;;;;;;;;5016073;28;20061;-95
2022/12/30 16:55:21;;;;;;;14.23;2.00;;;;;;;;;;5016252;28;20469;-96
2022/12/30 16:57:47;;;;;;;10.57;1.73;;;;;;;;;;5016229;28;20028;-96
2022/12/30 17:00:13;;;;;;;8.07;1.30;;;;;;;;;;5016065;28;20081;-95
2022/12/30 17:02:38;;;;;;;16.67;2.55;;;;;;;;;;5015989;28;20086;-96
2022/12/30 17:05:04;;;;;;;13.57;2.85;;;;;;;;;;5016026;28;20034;-96
2022/12/30 17:07:32;;;;;;;17.52;2.38;;;;;;;;;;5014923;28;20018;-96
2022/12/30 17:12:42;;;;;;;10.32;1.80;;;;;;;;;;5016269;28;20456;-96
2022/12/30 17:15:09;;;;;;;17.95;2.60;;;;;;;;;;5015724;28;20014;-95
2022/12/30 17:17:35;;;;;;;11.75;1.98;;;;;;;;;;5015411;28;20468;-95
2022/12/30 17:20:00;;;;;;;12.95;1.80;;;;;;;;;;5015003;28;20024;-95
2022/12/30 17:22:26;;;;;;;15.55;2.17;;;;;;;;;;5014962;28;20357;-96
2022/12/30 17:24:52;;;;;;;13.82;4.07;;;;;;;;;;5015286;28;20018;-95
2022/12/30 17:27:27;;;;;;;16.45;3.08;;;;;;;;;;5015372;28;20084;-95
2022/12/30 17:29:54;;;;;;;10.45;3.40;;;;;;;;;;5015567;28;20025;-96
2022/12/30 17:32:45;;;;;;;11.07;2.25;;;;;;;;;;5015222;28;20026;-96
2022/12/30 17:35:18;;;;;;;13.13;1.80;;;;;;;;;;5014718;28;20118;-96
2022/12/30 17:37:43;;;;;;;7.68;1.73;;;;;;;;;;5015595;28;20434;-95
2022/12/30 17:40:11;;;;;;;16.75;3.70;;;;;;;;;;5014966;28;20276;-95
2022/12/30 17:42:37;;;;;;;14.02;2.10;;;;;;;;;;5013398;28;20022;-95
2022/12/30 17:45:02;;;;;;;19.17;2.92;;;;;;;;;;5014410;28;20040;-95
2022/12/30 17:47:28;;;;;;;13.93;2.38;;;;;;;;;;5015404;28;20018;-96
2022/12/30 17:49:53;;;;;;;20.95;3.70;;;;;;;;;;5014978;28;20387;-96
2022/12/30 17:52:18;;;;;;;15.98;1.85;;;;;;;;;;5014531;28;20034;-95
2022/12/30 17:54:43;;;;;;;21.83;1.92;;;;;;;;;;5014820;28;20022;-95
2022/12/30 17:57:09;;;;;;;12.15;2.40;;;;;;;;;;5014413;28;20022;-95
2022/12/30 17:59:34;;;;;;;16.55;2.45;;;;;;;;;;5014747;28;20018;-95
2022/12/30 18:01:59;;;;;;;16.00;2.60;;;;;;;;;;5014204;28;20026;-95
2022/12/30 18:04:25;;;;;;;11.35;1.90;;;;;;;;;;5013682;28;20036;-95
2022/12/30 18:06:50;;;;;;;16.20;1.80;;;;;;;;;;5012980;28;20022;-96
2022/12/30 18:09:15;;;;;;;13.32;1.55;;;;;;;;;;5013201;28;20041;-96
2022/12/30 18:11:41;;;;;;;14.55;2.75;;;;;;;;;;5013140;28;20056;-95
2022/12/30 18:14:06;;;;;;;18.05;1.67;;;;;;;;;;5014626;28;20168;-95
2022/12/30 18:16:34;;;;;;;8.55;2.10;;;;;;;;;;5013912;28;20029;-96
2022/12/30 18:19:00;;;;;;;12.45;1.45;;;;;;;;;;5014074;28;20504;-95
2022/12/30 18:21:25;;;;;;;10.60;2.13;;;;;;;;;;5014573;28;20021;-95
2022/12/30 18:23:51;;;;;;;10.05;1.67;;;;;;;;;;5014244;28;20021;-95
2022/12/30 18:26:21;;;;;;;10.40;1.90;;;;;;;;;;5013547;28;20018;-96
2022/12/30 18:28:48;;;;;;;15.05;2.63;;;;;;;;;;5013551;28;20089;-95
2022/12/30 18:31:13;;;;;;;12.20;2.25;;;;;;;;;;5013875;28;20116;-95
2022/12/30 18:33:39;;;;;;;7.20;1.90;;;;;;;;;;5013841;28;20069;-96
2022/12/30 18:36:05;;;;;;;17.85;1.92;;;;;;;;;;5013897;28;20029;-96
2022/12/30 18:38:30;;;;;;;18.92;2.65;;;;;;;;;;5013460;28;20088;-96
2022/12/30 18:40:56;;;;;;;13.38;2.25;;;;;;;;;;5013467;28;20080;-96
2022/12/30 18:43:21;;;;;;;10.07;2.40;;;;;;;;;;5013429;28;20097;-96
2022/12/30 18:45:46;;;;;;;16.75;2.83;;;;;;;;;;5016444;28;20487;-95
2022/12/30 18:48:12;;;;;;;13.80;2.33;;;;;;;;;;5013763;28;20022;-95
2022/12/30 18:50:37;;;;;;;17.02;2.65;;;;;;;;;;5013703;28;20025;-96
2022/12/30 18:53:02;;;;;;;16.13;2.70;;;;;;;;;;5014109;28;20551;-95
2022/12/30 18:55:28;;;;;;;21.50;2.45;;;;;;;;;;5019901;28;20024;-95
2022/12/30 18:57:53;;;;;;;12.70;1.77;;;;;;;;;;5019774;28;20530;-95
2022/12/30 19:00:19;;;;;;;17.58;2.63;;;;;;;;;;5019947;28;20022;-96
2022/12/30 19:02:44;;;;;;;14.98;2.05;;;;;;;;;;5019499;28;20022;-95
2022/12/30 19:05:09;;;;;;;15.32;2.33;;;;;;;;;;5019069;28;20092;-95
2022/12/30 19:07:35;;;;;;;11.77;2.17;;;;;;;;;;5018909;28;20468;-96
2022/12/30 19:10:00;;;;;;;15.55;2.00;;;;;;;;;;5019190;28;20520;-96
2022/12/30 19:12:26;;;;;;;13.38;2.20;;;;;;;;;;5019824;28;20044;-95
2022/12/30 19:14:51;;;;;;;14.80;3.58;;;;;;;;;;5019206;28;20025;-96
2022/12/30 19:17:16;;;;;;;11.68;1.80;;;;;;;;;;5020976;28;20025;-95
2022/12/30 19:19:42;;;;;;;17.45;3.00;;;;;;;;;;5019016;28;20021;-94
2022/12/30 19:22:07;;;;;;;16.33;3.20;;;;;;;;;;5019110;28;20037;-94
2022/12/30 19:24:32;;;;;;;11.32;2.20;;;;;;;;;;5019246;28;20455;-94
2022/12/30 19:26:58;;;;;;;13.13;2.47;;;;;;;;;;5018835;28;20028;-95
2022/12/30 19:29:23;;;;;;;10.75;2.67;;;;;;;;;;5018977;28;20029;-95
2022/12/30 19:31:48;;;;;;;11.65;2.35;;;;;;;;;;5018670;28;20278;-95
2022/12/30 19:34:15;;;;;;;13.35;1.83;;;;;;;;;;5020213;28;20026;-96
2022/12/30 19:36:41;;;;;;;19.00;4.38;;;;;;;;;;5019423;28;20022;-95
2022/12/30 19:39:07;;;;;;;10.75;1.55;;;;;;;;;;5018653;28;20026;-96
2022/12/30 19:41:34;;;;;;;12.80;2.10;;;;;;;;;;5018551;28;20116;-96
2022/12/30 19:44:25;;;;;;;12.50;2.55;;;;;;;;;;5018718;28;20049;-96
2022/12/30 19:46:51;;;;;;;18.27;5.47;;;;;;;;;;5018010;28;20054;-96
2022/12/30 19:49:17;;;;;;;8.18;1.83;;;;;;;;;;5018490;28;20498;-96
2022/12/30 19:51:43;;;;;;;18.02;2.08;;;;;;;;;;5018482;28;20072;-95
2022/12/30 19:54:09;;;;;;;15.90;2.78;;;;;;;;;;5019936;28;20018;-95
2022/12/30 19:56:35;;;;;;;17.80;2.33;;;;;;;;;;5018571;28;20235;-96
2022/12/30 19:59:00;;;;;;;8.13;1.52;;;;;;;;;;5018714;28;20105;-96
2022/12/30 20:01:26;;;;;;;14.80;3.33;;;;;;;;;;5018539;28;20494;-96
2022/12/30 20:03:52;;;;;;;16.50;2.17;;;;;;;;;;5018708;28;20079;-96
2022/12/30 20:06:18;;;;;;;19.48;2.75;;;;;;;;;;5016889;28;20021;-95
2022/12/30 20:08:46;;;;;;;13.27;2.85;;;;;;;;;;5014695;28;20021;-95
2022/12/30 20:11:13;;;;;;;14.30;2.70;;;;;;;;;;5014552;28;20014;-96